Time;durP1;ratioP1;P1;durP2;ratioP2;P2;SDS_P1;SDS_P2;PMS_P1;PMS_P2;Temp;Humidity;BMP_temperature;BMP_pressure;BME280_temperature;BME280_humidity;BME280_pressure;Samples;Min_cycle;Max_cycle;Signal;HPM_P1;HPM_P2
2024/01/27 00:01:26;;;;;;;36.67;24.80;;;;;;;6.21;100.00;99341.63;5000674;28;20083;-67
2024/01/27 00:03:53;;;;;;;38.00;25.98;;;;;;;6.11;100.00;99343.94;5014878;28;20124;-66
2024/01/27 00:06:19;;;;;;;37.75;25.45;;;;;;;5.86;100.00;99300.75;5001487;28;20099;-66
2024/01/27 00:08:44;;;;;;;39.50;26.00;;;;;;;5.95;100.00;99321.69;4997739;28;20045;-66
2024/01/27 00:11:11;;;;;;;34.67;24.40;;;;;;;6.22;100.00;99358.75;5013678;28;20060;-66
2024/01/27 00:13:39;;;;;;;34.55;23.92;;;;;;;6.10;100.00;99339.72;5011990;28;20033;-67
2024/01/27 00:16:05;;;;;;;36.05;24.85;;;;;;;6.01;100.00;99342.91;5029274;28;20033;-66
2024/01/27 00:18:30;;;;;;;35.53;23.73;;;;;;;6.00;100.00;99346.38;4998398;28;20149;-66
2024/01/27 00:21:00;;;;;;;34.22;24.35;;;;;;;5.97;100.00;99348.25;5045865;28;20033;-64
2024/01/27 00:23:26;;;;;;;39.22;23.48;;;;;;;5.89;100.00;99336.72;5015482;28;20040;-67
2024/01/27 00:25:56;;;;;;;36.17;23.88;;;;;;;5.94;100.00;99335.50;5017220;28;20026;-67
2024/01/27 00:28:22;;;;;;;36.00;22.95;;;;;;;5.91;100.00;99321.94;5002422;28;20085;-65
2024/01/27 00:30:47;;;;;;;32.50;22.45;;;;;;;6.08;100.00;99357.06;5002199;28;20444;-65
2024/01/27 00:33:13;;;;;;;32.33;23.35;;;;;;;6.10;100.00;99337.97;5015066;28;20120;-66
2024/01/27 00:35:38;;;;;;;36.17;23.42;;;;;;;6.12;100.00;99349.00;5018763;28;20037;-65
2024/01/27 00:38:08;;;;;;;37.47;22.48;;;;;;;5.95;100.00;99355.25;5012538;28;20148;-66
2024/01/27 00:40:36;;;;;;;32.75;22.63;;;;;;;5.69;100.00;99335.38;5025067;28;20112;-65
2024/01/27 00:43:09;;;;;;;34.25;22.27;;;;;;;5.76;100.00;99346.97;4994721;28;20044;-64
2024/01/27 00:45:34;;;;;;;34.60;22.27;;;;;;;5.80;100.00;99363.09;5013669;28;20995;-65
2024/01/27 00:48:03;;;;;;;33.63;21.42;;;;;;;5.64;100.00;99358.91;4999074;28;20026;-65
2024/01/27 00:50:28;;;;;;;37.10;21.33;;;;;;;5.70;100.00;99355.94;5009046;28;20026;-67
2024/01/27 00:52:53;;;;;;;34.35;21.92;;;;;;;5.75;100.00;99369.38;5016988;28;20055;-66
2024/01/27 00:55:19;;;;;;;30.70;20.00;;;;;;;5.65;100.00;99364.88;5016320;28;20029;-65
2024/01/27 00:57:46;;;;;;;29.30;19.58;;;;;;;5.57;100.00;99355.06;5024424;28;20029;-65
2024/01/27 01:00:13;;;;;;;31.67;20.75;;;;;;;5.63;100.00;99361.56;5018508;28;20028;-65
2024/01/27 01:02:40;;;;;;;32.03;21.67;;;;;;;5.14;100.00;99329.28;5011267;28;20244;-65
2024/01/27 01:05:09;;;;;;;31.98;20.52;;;;;;;5.44;100.00;99362.72;5018209;28;20041;-65
2024/01/27 01:07:36;;;;;;;30.02;19.25;;;;;;;5.35;100.00;99363.28;5011420;28;20059;-67
2024/01/27 01:10:04;;;;;;;32.35;19.23;;;;;;;5.39;100.00;99375.88;5015771;28;20038;-66
2024/01/27 01:12:29;;;;;;;26.40;18.67;;;;;;;5.36;100.00;99388.13;5002298;28;20177;-66
2024/01/27 01:14:55;;;;;;;31.30;19.95;;;;;;;5.39;100.00;99375.06;5013324;28;20452;-65
2024/01/27 01:17:21;;;;;;;28.45;18.90;;;;;;;5.19;100.00;99394.31;4994340;28;20694;-65
2024/01/27 01:19:46;;;;;;;30.42;18.98;;;;;;;5.13;100.00;99384.34;5035088;28;20037;-68
2024/01/27 01:22:12;;;;;;;27.73;17.55;;;;;;;5.08;100.00;99369.16;4999112;28;20044;-67
2024/01/27 01:24:39;;;;;;;26.40;18.38;;;;;;;5.25;100.00;99395.69;5009050;28;20024;-66
2024/01/27 01:27:05;;;;;;;28.35;17.67;;;;;;;5.12;100.00;99401.56;5013308;28;20036;-67
2024/01/27 01:29:33;;;;;;;26.95;17.05;;;;;;;5.13;100.00;99398.06;5000059;28;20053;-66
2024/01/27 01:32:03;;;;;;;33.08;18.02;;;;;;;5.24;100.00;99392.28;5015913;28;20158;-67
2024/01/27 01:34:29;;;;;;;25.15;16.00;;;;;;;5.24;100.00;99400.03;5013508;28;20040;-68
2024/01/27 01:36:54;;;;;;;27.20;16.38;;;;;;;5.14;100.00;99402.28;5000104;28;20029;-65
2024/01/27 01:39:20;;;;;;;25.35;16.00;;;;;;;4.92;100.00;99404.47;5004361;28;20091;-66
2024/01/27 01:41:47;;;;;;;25.30;15.88;;;;;;;4.57;100.00;99351.50;5016594;28;20063;-67
2024/01/27 01:44:15;;;;;;;20.30;14.18;;;;;;;5.00;100.00;99403.13;4997120;28;20030;-66
2024/01/27 01:46:43;;;;;;;22.70;13.70;;;;;;;4.99;100.00;99411.75;5012777;28;20037;-66
2024/01/27 01:49:08;;;;;;;22.17;13.40;;;;;;;4.94;100.00;99398.31;5011325;28;20119;-67
2024/01/27 01:51:34;;;;;;;20.88;13.52;;;;;;;5.02;100.00;99397.88;5028599;28;20566;-67
2024/01/27 01:54:00;;;;;;;21.92;12.80;;;;;;;5.06;100.00;99407.09;5018616;28;20025;-66
2024/01/27 01:56:28;;;;;;;19.20;12.40;;;;;;;5.12;100.00;99406.72;5013729;28;20317;-68
2024/01/27 01:58:57;;;;;;;21.05;12.30;;;;;;;5.11;100.00;99406.81;4996756;28;20041;-65
2024/01/27 02:01:25;;;;;;;19.90;11.30;;;;;;;5.09;100.00;99421.53;4992796;28;20029;-66
2024/01/27 02:03:54;;;;;;;20.60;11.45;;;;;;;5.07;100.00;99408.72;5012917;28;20044;-67
2024/01/27 02:06:19;;;;;;;19.77;10.63;;;;;;;5.09;100.00;99398.34;5013368;28;20491;-66
2024/01/27 02:08:44;;;;;;;16.10;9.93;;;;;;;4.99;100.00;99408.38;4999841;28;20018;-66
2024/01/27 02:11:12;;;;;;;19.38;10.27;;;;;;;4.93;100.00;99409.56;5002487;28;20040;-65
2024/01/27 02:13:43;;;;;;;15.27;9.32;;;;;;;4.92;100.00;99422.53;5014921;28;20061;-64
2024/01/27 02:16:11;;;;;;;14.55;8.27;;;;;;;4.98;100.00;99422.16;5048975;28;20033;-65
2024/01/27 02:18:36;;;;;;;15.38;8.48;;;;;;;5.06;100.00;99416.56;4993177;28;20037;-65
2024/01/27 02:21:01;;;;;;;13.18;7.70;;;;;;;5.05;100.00;99418.31;5014373;28;20046;-66
2024/01/27 02:23:27;;;;;;;10.95;6.63;;;;;;;4.98;100.00;99414.44;5024005;28;20388;-66
2024/01/27 02:25:52;;;;;;;15.15;7.28;;;;;;;4.91;100.00;99428.59;5015288;28;20029;-65
2024/01/27 02:28:18;;;;;;;11.38;6.97;;;;;;;4.87;100.00;99430.50;5010627;28;20399;-66
2024/01/27 02:30:43;;;;;;;12.35;6.53;;;;;;;4.88;100.00;99418.47;5031927;28;20478;-66
2024/01/27 02:33:11;;;;;;;13.93;6.50;;;;;;;4.76;100.00;99423.41;5012867;28;20037;-66
2024/01/27 02:35:36;;;;;;;10.90;6.38;;;;;;;4.51;100.00;99374.19;5002089;28;20045;-66
2024/01/27 02:38:04;;;;;;;12.90;6.30;;;;;;;4.97;100.00;99438.56;5000918;28;20057;-67
2024/01/27 02:40:29;;;;;;;11.75;6.00;;;;;;;5.02;100.00;99418.50;5014654;28;20076;-68
2024/01/27 02:42:55;;;;;;;11.98;6.38;;;;;;;5.02;100.00;99439.13;5032583;28;20128;-66
2024/01/27 02:45:20;;;;;;;12.70;6.40;;;;;;;4.51;100.00;99377.63;5010276;28;20083;-67
2024/01/27 02:47:46;;;;;;;11.98;5.85;;;;;;;4.81;100.00;99433.44;5012322;28;20030;-68
2024/01/27 02:50:11;;;;;;;11.30;5.90;;;;;;;4.77;100.00;99434.53;5013318;28;20097;-67
2024/01/27 02:52:39;;;;;;;11.85;6.05;;;;;;;4.68;100.00;99429.94;5013987;28;20037;-67
2024/01/27 02:55:08;;;;;;;10.75;5.88;;;;;;;4.74;100.00;99437.28;5015002;28;20278;-67
2024/01/27 02:57:36;;;;;;;12.00;5.28;;;;;;;4.48;100.00;99382.94;5015866;28;20037;-68
2024/01/27 03:00:02;;;;;;;9.90;4.82;;;;;;;4.53;100.00;99390.41;5042273;28;20071;-67
2024/01/27 03:02:27;;;;;;;9.55;4.85;;;;;;;4.49;100.00;99392.34;5009920;28;20037;-67
2024/01/27 03:04:53;;;;;;;11.02;4.82;;;;;;;4.39;100.00;99389.44;5010872;28;20518;-67
2024/01/27 03:07:18;;;;;;;10.80;5.10;;;;;;;4.72;100.00;99429.66;4994173;28;20033;-65
2024/01/27 03:09:46;;;;;;;10.88;4.97;;;;;;;4.76;100.00;99450.91;4994058;28;20113;-67
2024/01/27 03:12:11;;;;;;;9.45;4.57;;;;;;;4.18;100.00;99394.03;5009276;28;20021;-66
2024/01/27 03:14:37;;;;;;;10.63;4.85;;;;;;;4.68;100.00;99447.97;5021831;28;20111;-66
2024/01/27 03:17:07;;;;;;;10.30;5.30;;;;;;;4.41;100.00;99443.41;5013521;28;20044;-67
2024/01/27 03:19:34;;;;;;;11.82;4.30;;;;;;;4.26;100.00;99416.78;5025396;28;20108;-67
2024/01/27 03:22:02;;;;;;;10.32;4.60;;;;;;;4.47;100.00;99449.97;5005113;28;20040;-66
2024/01/27 03:24:27;;;;;;;10.35;4.32;;;;;;;4.48;100.00;99454.22;5014724;28;21291;-66
2024/01/27 03:26:52;;;;;;;10.88;5.25;;;;;;;4.50;100.00;99448.06;5010462;28;20147;-67
2024/01/27 03:29:20;;;;;;;12.27;4.65;;;;;;;4.41;100.00;99451.16;4999621;28;20547;-66
2024/01/27 03:31:45;;;;;;;9.52;4.88;;;;;;;4.29;100.00;99444.94;5048427;28;20022;-67
2024/01/27 03:34:17;;;;;;;10.25;4.57;;;;;;;4.30;100.00;99456.88;5021657;28;20522;-66
2024/01/27 03:36:47;;;;;;;9.63;4.30;;;;;;;4.23;100.00;99452.97;5006136;28;20030;-66
2024/01/27 03:39:15;;;;;;;10.27;4.47;;;;;;;4.27;100.00;99454.50;5008265;28;20144;-66
2024/01/27 03:41:41;;;;;;;10.23;4.05;;;;;;;4.29;100.00;99455.25;5046558;28;20567;-67
2024/01/27 03:44:09;;;;;;;10.40;4.20;;;;;;;4.26;100.00;99445.09;5015414;28;21196;-66
2024/01/27 03:46:35;;;;;;;9.90;3.97;;;;;;;4.01;100.00;99400.09;5013495;28;20568;-66
2024/01/27 03:49:03;;;;;;;10.73;4.15;;;;;;;4.36;100.00;99448.84;5017680;28;20041;-66
2024/01/27 03:51:31;;;;;;;9.88;4.47;;;;;;;4.18;100.00;99453.25;5048109;28;20569;-67
2024/01/27 03:53:59;;;;;;;8.63;3.78;;;;;;;4.11;100.00;99453.69;5005884;28;20029;-65
2024/01/27 03:56:27;;;;;;;9.55;3.90;;;;;;;3.76;100.00;99400.63;5014900;28;20026;-67
2024/01/27 03:58:55;;;;;;;7.90;3.63;;;;;;;4.06;100.00;99460.81;5016890;28;20029;-67
2024/01/27 04:01:21;;;;;;;8.40;3.50;;;;;;;3.71;100.00;99394.88;5015197;28;20033;-67
2024/01/27 04:03:46;;;;;;;8.82;3.80;;;;;;;3.89;100.00;99452.25;5018064;28;20040;-66
2024/01/27 04:06:12;;;;;;;7.47;3.42;;;;;;;3.93;100.00;99440.88;5015481;28;20113;-65
2024/01/27 04:08:37;;;;;;;8.10;3.20;;;;;;;4.15;100.00;99458.56;5015860;28;20045;-65
2024/01/27 04:11:05;;;;;;;7.18;2.75;;;;;;;3.97;100.00;99470.66;5017188;28;20029;-65
2024/01/27 04:13:30;;;;;;;7.15;2.70;;;;;;;4.02;100.00;99473.84;4999819;28;20107;-67
2024/01/27 04:16:01;;;;;;;8.70;3.28;;;;;;;4.14;100.00;99469.75;5000980;28;20029;-66
2024/01/27 04:18:29;;;;;;;7.72;2.85;;;;;;;3.64;100.00;99408.97;5002568;28;20524;-66
2024/01/27 04:20:54;;;;;;;7.78;2.95;;;;;;;3.98;100.00;99476.63;5013429;28;20152;-68
2024/01/27 04:23:22;;;;;;;7.90;3.13;;;;;;;4.01;99.53;99464.44;5018639;28;20457;-66
2024/01/27 04:25:50;;;;;;;8.55;3.20;;;;;;;4.08;99.85;99470.09;5015874;28;20411;-67
2024/01/27 04:28:15;;;;;;;13.20;3.40;;;;;;;4.04;100.00;99484.88;5014549;28;20017;-67
2024/01/27 04:30:42;;;;;;;8.38;3.45;;;;;;;3.87;100.00;99466.09;4997905;28;20522;-67
2024/01/27 04:33:09;;;;;;;7.47;2.60;;;;;;;4.03;99.97;99490.09;5033983;28;20045;-67
2024/01/27 04:35:35;;;;;;;7.28;2.85;;;;;;;3.83;99.31;99484.28;5016126;28;20034;-67
2024/01/27 04:38:01;;;;;;;9.55;3.70;;;;;;;3.44;100.00;99428.03;5017020;28;20595;-67
2024/01/27 04:40:26;;;;;;;7.43;3.05;;;;;;;3.63;100.00;99495.59;5009503;28;20030;-67
2024/01/27 04:42:51;;;;;;;6.82;3.05;;;;;;;3.53;100.00;99450.69;5020750;28;20128;-67
2024/01/27 04:45:17;;;;;;;9.68;3.22;;;;;;;3.95;99.39;99502.56;4999753;28;20048;-68
2024/01/27 04:47:44;;;;;;;8.70;3.03;;;;;;;3.61;99.23;99443.41;4997128;28;20042;-68
2024/01/27 04:50:10;;;;;;;7.20;3.10;;;;;;;3.92;100.00;99493.22;5006159;28;20758;-67
2024/01/27 04:52:35;;;;;;;9.25;3.05;;;;;;;3.88;99.07;99516.66;5014839;28;20038;-68
2024/01/27 04:55:03;;;;;;;7.85;3.22;;;;;;;3.93;99.39;99504.38;5032829;28;20427;-67
2024/01/27 04:57:31;;;;;;;7.07;2.67;;;;;;;3.45;99.53;99455.41;5017205;28;20049;-68
2024/01/27 04:59:59;;;;;;;8.57;3.08;;;;;;;3.75;100.00;99499.28;5041034;28;20117;-67
2024/01/27 05:02:24;;;;;;;7.38;3.22;;;;;;;3.73;100.00;99508.81;5016790;28;20029;-66
2024/01/27 05:04:50;;;;;;;7.90;2.90;;;;;;;3.78;99.19;99503.44;5013574;28;20076;-67
2024/01/27 05:07:17;;;;;;;8.18;3.25;;;;;;;3.64;99.07;99504.97;5013178;28;20041;-66
2024/01/27 05:09:43;;;;;;;7.25;2.88;;;;;;;3.62;99.78;99516.25;5014495;28;20130;-68
2024/01/27 05:12:08;;;;;;;9.25;3.45;;;;;;;3.57;100.00;99520.81;5017466;28;20037;-68
2024/01/27 05:14:34;;;;;;;8.38;3.53;;;;;;;3.62;100.00;99519.66;5011272;28;20825;-66
2024/01/27 05:16:59;;;;;;;7.60;3.05;;;;;;;3.49;100.00;99508.34;5011894;28;20483;-67
2024/01/27 05:19:25;;;;;;;9.23;3.42;;;;;;;3.30;100.00;99476.75;5047890;28;20033;-67
2024/01/27 05:21:50;;;;;;;9.20;3.13;;;;;;;3.44;100.00;99530.88;5018566;28;20091;-66
2024/01/27 05:24:15;;;;;;;10.30;3.78;;;;;;;3.36;100.00;99494.41;5019178;28;20033;-66
2024/01/27 05:26:41;;;;;;;8.35;3.03;;;;;;;3.52;100.00;99536.44;4998713;28;20238;-67
2024/01/27 05:29:06;;;;;;;7.90;3.35;;;;;;;3.27;100.00;99539.44;5031690;28;20160;-68
2024/01/27 05:31:32;;;;;;;10.10;3.53;;;;;;;3.32;100.00;99539.19;4994451;28;20025;-68
2024/01/27 05:33:59;;;;;;;7.32;3.03;;;;;;;3.31;100.00;99548.66;5014046;28;20029;-68
2024/01/27 05:36:27;;;;;;;6.88;2.97;;;;;;;3.41;100.00;99552.44;5011864;28;20037;-67
2024/01/27 05:38:52;;;;;;;11.43;3.22;;;;;;;3.49;100.00;99549.47;5016772;28;20142;-66
2024/01/27 05:41:18;;;;;;;7.35;2.80;;;;;;;3.59;100.00;99560.13;5007170;28;20483;-67
2024/01/27 05:43:43;;;;;;;7.50;3.17;;;;;;;3.48;100.00;99555.50;5024166;28;20601;-67
2024/01/27 05:46:10;;;;;;;7.05;2.95;;;;;;;3.47;100.00;99559.00;5011729;28;20037;-65
2024/01/27 05:48:42;;;;;;;8.07;3.33;;;;;;;3.46;100.00;99560.72;4996709;28;20045;-67
2024/01/27 05:51:10;;;;;;;11.15;3.58;;;;;;;3.47;100.00;99570.13;5012539;28;20099;-68
2024/01/27 05:53:37;;;;;;;7.78;3.65;;;;;;;3.41;100.00;99554.16;5016843;28;20359;-68
2024/01/27 05:56:04;;;;;;;8.15;3.10;;;;;;;3.43;100.00;99565.19;5000936;28;20029;-68
2024/01/27 05:58:30;;;;;;;7.68;3.20;;;;;;;3.26;100.00;99550.59;5016535;28;20033;-69
2024/01/27 06:00:55;;;;;;;8.95;3.38;;;;;;;3.25;100.00;99565.22;5029179;28;20037;-67
2024/01/27 06:03:23;;;;;;;9.27;3.38;;;;;;;3.14;100.00;99569.19;5010353;28;20033;-68
2024/01/27 06:05:49;;;;;;;9.70;3.97;;;;;;;3.18;100.00;99578.44;5015455;28;20230;-68
2024/01/27 06:08:14;;;;;;;7.50;3.10;;;;;;;3.36;100.00;99576.69;5017127;28;20805;-67
2024/01/27 06:10:43;;;;;;;7.72;3.20;;;;;;;3.41;100.00;99585.00;5021636;28;20049;-67
2024/01/27 06:13:08;;;;;;;9.18;3.40;;;;;;;3.36;100.00;99585.25;5005042;28;20038;-68
2024/01/27 06:15:34;;;;;;;8.10;3.42;;;;;;;3.38;100.00;99592.91;5012519;28;20124;-66
2024/01/27 06:17:59;;;;;;;10.18;3.70;;;;;;;3.41;100.00;99585.00;5014669;28;20048;-67
2024/01/27 06:20:24;;;;;;;7.47;2.95;;;;;;;3.39;100.00;99597.94;5007913;28;20605;-67
2024/01/27 06:22:52;;;;;;;9.48;3.50;;;;;;;3.26;100.00;99597.69;5007717;28;20033;-66
2024/01/27 06:25:18;;;;;;;8.13;3.00;;;;;;;3.26;100.00;99596.88;4999346;28;20033;-66
2024/01/27 06:27:45;;;;;;;8.55;3.10;;;;;;;3.30;100.00;99587.28;4993872;28;20028;-67
2024/01/27 06:30:14;;;;;;;6.75;2.92;;;;;;;3.30;100.00;99595.81;5026987;28;20041;-67
2024/01/27 06:32:39;;;;;;;9.20;3.08;;;;;;;2.99;100.00;99545.91;5009204;28;20387;-65
2024/01/27 06:35:07;;;;;;;7.18;3.05;;;;;;;3.12;100.00;99612.97;4999799;28;20598;-66
2024/01/27 06:37:35;;;;;;;6.47;2.97;;;;;;;3.06;100.00;99575.53;5009752;28;20057;-67
2024/01/27 06:40:03;;;;;;;7.60;3.15;;;;;;;3.51;100.00;99622.22;5013320;28;20038;-67
2024/01/27 06:42:29;;;;;;;6.18;3.10;;;;;;;3.46;100.00;99619.88;5030818;28;20033;-67
2024/01/27 06:44:57;;;;;;;9.82;3.03;;;;;;;3.54;100.00;99616.94;5013841;28;20715;-67
2024/01/27 06:47:24;;;;;;;8.10;3.50;;;;;;;3.60;100.00;99626.09;5014168;28;20038;-67
2024/01/27 06:49:54;;;;;;;9.52;3.00;;;;;;;3.62;100.00;99626.84;5026728;28;21301;-67
2024/01/27 06:52:20;;;;;;;9.27;3.55;;;;;;;3.66;100.00;99630.94;5014700;28;20029;-68
2024/01/27 06:54:45;;;;;;;6.97;3.28;;;;;;;3.41;100.00;99596.16;5041193;28;20080;-67
2024/01/27 06:57:19;;;;;;;6.50;3.00;;;;;;;3.71;100.00;99631.53;5013703;28;20147;-67
2024/01/27 06:59:51;;;;;;;6.55;2.72;;;;;;;3.63;100.00;99626.78;4999054;28;20030;-67
2024/01/27 07:02:19;;;;;;;9.10;3.05;;;;;;;3.72;100.00;99642.66;5028591;28;20026;-66
2024/01/27 07:04:45;;;;;;;6.70;3.00;;;;;;;3.37;100.00;99601.50;4998246;28;20069;-68
2024/01/27 07:07:12;;;;;;;8.30;3.05;;;;;;;3.69;100.00;99642.78;5007115;28;20116;-67
2024/01/27 07:09:38;;;;;;;7.82;3.28;;;;;;;3.66;100.00;99648.94;5012519;28;20025;-67
2024/01/27 07:12:03;;;;;;;7.47;2.80;;;;;;;3.74;100.00;99639.13;4995247;28;20037;-68
2024/01/27 07:14:31;;;;;;;6.65;2.47;;;;;;;3.90;100.00;99656.34;5045572;28;20033;-66
2024/01/27 07:16:57;;;;;;;8.75;2.97;;;;;;;3.69;100.00;99609.34;4998971;28;20084;-65
2024/01/27 07:19:24;;;;;;;7.60;3.20;;;;;;;4.09;100.00;99648.50;5007867;28;20487;-67
2024/01/27 07:21:50;;;;;;;8.25;3.47;;;;;;;3.71;100.00;99595.53;5020701;28;20041;-66
2024/01/27 07:24:15;;;;;;;6.78;2.47;;;;;;;4.00;100.00;99673.00;5015214;28;20041;-68
2024/01/27 07:26:41;;;;;;;7.00;2.60;;;;;;;4.18;100.00;99653.19;4998720;28;20033;-66
2024/01/27 07:29:07;;;;;;;6.13;2.50;;;;;;;4.36;100.00;99664.28;4994797;28;20565;-66
2024/01/27 07:31:38;;;;;;;5.35;2.08;;;;;;;4.49;100.00;99670.50;5023165;28;20032;-66
2024/01/27 07:34:06;;;;;;;4.93;2.17;;;;;;;4.39;100.00;99669.28;4997670;28;20176;-66
2024/01/27 07:36:32;;;;;;;5.97;2.65;;;;;;;4.02;100.00;99622.28;5000812;28;20112;-66
2024/01/27 07:38:58;;;;;;;8.30;3.70;;;;;;;4.09;100.00;99628.78;4997036;28;20037;-66
2024/01/27 07:41:25;;;;;;;5.70;2.20;;;;;;;4.70;100.00;99665.13;4996175;28;20055;-66
2024/01/27 07:43:51;;;;;;;4.15;1.63;;;;;;;4.85;100.00;99656.53;5039684;28;20041;-67
2024/01/27 07:46:22;;;;;;;4.63;1.75;;;;;;;4.96;100.00;99664.53;5027513;28;20030;-67
2024/01/27 07:48:48;;;;;;;4.05;1.67;;;;;;;4.94;100.00;99668.13;5007669;28;20032;-66
2024/01/27 07:51:15;;;;;;;5.97;2.10;;;;;;;4.92;100.00;99660.47;5013042;28;20022;-66
2024/01/27 07:53:40;;;;;;;4.03;1.42;;;;;;;4.84;100.00;99672.09;4993814;28;20030;-67
2024/01/27 07:56:09;;;;;;;4.13;1.70;;;;;;;4.58;100.00;99676.88;5013941;28;20029;-68
2024/01/27 07:58:37;;;;;;;4.35;1.58;;;;;;;4.45;100.00;99622.59;5018541;28;20733;-66
2024/01/27 08:01:03;;;;;;;5.75;2.05;;;;;;;4.73;100.00;99670.94;5012212;28;20097;-67
2024/01/27 08:03:28;;;;;;;5.22;1.77;;;;;;;4.69;100.00;99669.44;4993586;28;20883;-66
2024/01/27 08:05:55;;;;;;;6.45;1.77;;;;;;;4.67;100.00;99660.94;5019922;28;20032;-68
2024/01/27 08:08:23;;;;;;;6.00;1.92;;;;;;;4.73;100.00;99668.34;5027613;28;20156;-68
2024/01/27 08:10:48;;;;;;;5.45;2.00;;;;;;;4.73;100.00;99670.94;5008622;28;20417;-67
2024/01/27 08:13:14;;;;;;;4.32;1.77;;;;;;;4.38;100.00;99606.66;5016257;28;20044;-67
2024/01/27 08:15:39;;;;;;;4.95;1.90;;;;;;;4.71;100.00;99665.03;5008587;28;20022;-66
2024/01/27 08:18:07;;;;;;;5.97;2.53;;;;;;;4.66;100.00;99676.50;5030158;28;20152;-68
2024/01/27 08:20:32;;;;;;;4.75;1.90;;;;;;;4.78;100.00;99663.78;5023602;28;20079;-67
2024/01/27 08:22:57;;;;;;;3.97;1.67;;;;;;;4.89;100.00;99677.84;4998022;28;21273;-69
2024/01/27 08:25:23;;;;;;;5.13;1.80;;;;;;;4.86;100.00;99676.25;5013450;28;20030;-68
2024/01/27 08:27:51;;;;;;;6.00;2.83;;;;;;;4.55;100.00;99616.06;4998539;28;20041;-67
2024/01/27 08:30:17;;;;;;;4.65;1.67;;;;;;;5.12;100.00;99671.44;5015103;28;20037;-66
2024/01/27 08:32:44;;;;;;;4.93;2.10;;;;;;;5.21;100.00;99686.41;5003394;28;20039;-66
2024/01/27 08:35:10;;;;;;;4.63;1.50;;;;;;;5.31;99.07;99682.41;5000605;28;20199;-67
2024/01/27 08:37:38;;;;;;;4.45;1.50;;;;;;;5.33;98.48;99684.88;4984204;28;20292;-67
2024/01/27 08:40:05;;;;;;;6.25;2.22;;;;;;;5.18;97.31;99666.78;4999626;28;20025;-67
2024/01/27 08:42:33;;;;;;;5.70;1.63;;;;;;;5.12;99.74;99685.16;4984415;28;20451;-69
2024/01/27 08:44:58;;;;;;;4.70;1.67;;;;;;;5.19;100.00;99696.78;5034159;28;20361;-66
2024/01/27 08:47:24;;;;;;;3.70;1.60;;;;;;;5.16;100.00;99690.97;5029288;28;20514;-67
2024/01/27 08:49:54;;;;;;;5.00;1.70;;;;;;;5.15;100.00;99692.72;4984658;28;20108;-65
2024/01/27 08:52:19;;;;;;;3.75;1.52;;;;;;;5.22;100.00;99684.66;5001725;28;20514;-66
2024/01/27 08:54:47;;;;;;;5.25;1.80;;;;;;;5.08;100.00;99700.88;5001888;28;20025;-67
2024/01/27 08:57:12;;;;;;;5.35;2.00;;;;;;;4.96;100.00;99694.63;5007202;28;20025;-68
2024/01/27 08:59:40;;;;;;;6.32;2.20;;;;;;;4.85;100.00;99666.03;5000113;28;20080;-67
2024/01/27 09:02:06;;;;;;;7.97;3.17;;;;;;;5.01;100.00;99688.31;5023212;28;20498;-65
2024/01/27 09:04:33;;;;;;;7.68;3.35;;;;;;;5.00;100.00;99676.34;5000718;28;20087;-66
2024/01/27 09:06:59;;;;;;;7.22;3.00;;;;;;;4.69;100.00;99678.91;5020393;28;20480;-67
2024/01/27 09:09:29;;;;;;;5.35;2.10;;;;;;;4.56;100.00;99628.03;5032268;28;20036;-67
2024/01/27 09:11:56;;;;;;;4.40;1.60;;;;;;;5.11;100.00;99680.06;5032185;28;20095;-67
2024/01/27 09:14:24;;;;;;;4.07;1.50;;;;;;;5.07;100.00;99658.78;4998596;28;20030;-67
2024/01/27 09:16:52;;;;;;;5.15;2.17;;;;;;;5.12;100.00;99680.00;5017104;28;20037;-68
2024/01/27 09:19:17;;;;;;;4.90;1.70;;;;;;;5.06;100.00;99682.09;5014925;28;20084;-67
2024/01/27 09:21:45;;;;;;;5.82;2.05;;;;;;;5.01;100.00;99682.34;5032898;28;20532;-67
2024/01/27 09:24:13;;;;;;;6.88;1.60;;;;;;;5.16;100.00;99671.16;5023264;28;20037;-67
2024/01/27 09:26:40;;;;;;;4.85;1.65;;;;;;;5.19;100.00;99668.44;4982362;28;20941;-68
2024/01/27 09:29:07;;;;;;;5.70;1.65;;;;;;;5.12;100.00;99677.41;5006462;28;20045;-67
2024/01/27 09:31:32;;;;;;;5.65;2.03;;;;;;;4.84;100.00;99630.84;5012854;28;20021;-66
2024/01/27 09:34:00;;;;;;;5.25;1.60;;;;;;;4.81;99.43;99631.88;5004365;28;20041;-67
2024/01/27 09:36:28;;;;;;;5.78;1.50;;;;;;;5.22;98.55;99670.03;4998569;28;20211;-65
2024/01/27 09:38:54;;;;;;;4.18;1.50;;;;;;;5.49;96.51;99687.44;4997603;28;20049;-67
2024/01/27 09:41:22;;;;;;;3.78;1.38;;;;;;;5.65;95.13;99690.00;5005736;28;20104;-68
2024/01/27 09:43:48;;;;;;;7.57;1.48;;;;;;;5.70;90.92;99677.69;5012159;28;20033;-68
2024/01/27 09:46:17;;;;;;;4.60;1.20;;;;;;;5.85;90.50;99691.44;5000916;28;20026;-65
2024/01/27 09:48:45;;;;;;;6.30;2.50;;;;;;;5.89;89.75;99692.94;5015832;28;20045;-69
2024/01/27 09:51:11;;;;;;;5.88;2.78;;;;;;;5.93;89.02;99697.84;5001818;28;20033;-67
2024/01/27 09:53:41;;;;;;;5.88;2.60;;;;;;;5.93;89.73;99699.56;5029704;28;20740;-68
2024/01/27 09:56:07;;;;;;;5.55;2.40;;;;;;;5.91;89.11;99694.53;5031115;28;20021;-66
2024/01/27 09:58:32;;;;;;;8.52;1.67;;;;;;;6.03;87.43;99698.16;4998196;28;20430;-67
2024/01/27 10:01:02;;;;;;;5.15;1.60;;;;;;;5.95;89.07;99687.41;4990793;28;20498;-66
2024/01/27 10:03:30;;;;;;;4.97;2.00;;;;;;;5.92;91.58;99697.91;5028137;28;20049;-66
2024/01/27 10:05:58;;;;;;;7.07;2.20;;;;;;;5.61;89.57;99647.25;5032197;28;20111;-66
2024/01/27 10:08:23;;;;;;;4.20;1.55;;;;;;;5.62;87.08;99651.47;5014646;28;20036;-67
2024/01/27 10:11:01;;;;;;;3.83;1.50;;;;;;;6.16;84.62;99683.59;5020238;28;20029;-68
2024/01/27 10:13:28;;;;;;;5.25;1.70;;;;;;;6.07;84.40;99647.16;4979720;28;20112;-66
2024/01/27 10:16:01;;;;;;;4.05;1.60;;;;;;;6.37;83.14;99682.41;5013978;28;20048;-67
2024/01/27 10:18:32;;;;;;;3.70;1.60;;;;;;;6.62;81.88;99680.00;5000752;28;20022;-65
2024/01/27 10:21:07;;;;;;;4.15;1.60;;;;;;;6.80;81.92;99679.81;4980398;28;20025;-67
2024/01/27 10:23:39;;;;;;;4.15;1.50;;;;;;;7.06;81.17;99675.63;5017498;28;20412;-67
2024/01/27 10:26:04;;;;;;;3.90;1.20;;;;;;;7.43;76.12;99675.84;4998185;28;20085;-67
2024/01/27 10:28:30;;;;;;;3.47;1.23;;;;;;;7.41;74.84;99659.59;5031846;28;20554;-67
2024/01/27 10:31:17;;;;;;;3.97;1.35;;;;;;;7.42;76.56;99669.84;5004647;28;20022;-66
2024/01/27 10:33:51;;;;;;;3.88;1.40;;;;;;;7.87;71.72;99657.44;5000880;28;20038;-66
2024/01/27 10:36:17;;;;;;;4.50;1.20;;;;;;;8.21;69.75;99655.19;5008324;28;20026;-65
2024/01/27 10:38:45;;;;;;;5.13;1.73;;;;;;;8.48;67.79;99650.84;4982525;28;20235;-68
2024/01/27 10:41:20;;;;;;;4.40;1.30;;;;;;;8.36;67.08;99595.44;4989953;28;20033;-67
2024/01/27 10:43:50;;;;;;;4.15;1.40;;;;;;;8.60;68.01;99648.22;5000751;28;20039;-67
2024/01/27 10:46:19;;;;;;;5.40;1.80;;;;;;;8.90;66.93;99641.00;4976260;28;20057;-67
2024/01/27 10:48:54;;;;;;;5.03;2.05;;;;;;;8.91;71.62;99643.47;4984775;28;20021;-66
2024/01/27 10:51:27;;;;;;;3.53;1.10;;;;;;;9.04;71.37;99649.44;5014437;28;20041;-68
2024/01/27 10:53:55;;;;;;;5.25;1.38;;;;;;;8.94;72.18;99634.63;5032546;28;20069;-66
2024/01/27 10:56:21;;;;;;;5.75;1.40;;;;;;;8.99;72.06;99637.75;4981335;28;20029;-66
2024/01/27 10:58:49;;;;;;;3.40;1.10;;;;;;;9.03;69.73;99637.44;5022266;28;20029;-68
2024/01/27 11:01:15;;;;;;;4.18;1.20;;;;;;;9.08;68.08;99633.66;5029437;28;20029;-66
2024/01/27 11:03:41;;;;;;;4.15;1.30;;;;;;;9.35;66.61;99644.63;5020915;28;20793;-69
2024/01/27 11:06:10;;;;;;;4.00;1.40;;;;;;;9.26;65.79;99621.13;5015220;28;20491;-67
2024/01/27 11:08:38;;;;;;;3.55;1.10;;;;;;;9.36;62.72;99629.88;5022244;28;20052;-67
2024/01/27 11:11:03;;;;;;;3.58;1.15;;;;;;;9.43;65.22;99636.28;4978036;28;20037;-66
2024/01/27 11:13:35;;;;;;;4.53;1.10;;;;;;;9.15;62.84;99581.22;4999162;28;21355;-66
2024/01/27 11:16:00;;;;;;;3.67;1.15;;;;;;;9.46;61.73;99627.47;5030658;28;20021;-68
2024/01/27 11:18:26;;;;;;;3.50;1.15;;;;;;;9.60;63.57;99617.72;4985138;28;20837;-67
2024/01/27 11:20:56;;;;;;;4.03;1.20;;;;;;;9.41;64.38;99615.63;5014711;28;20140;-67
2024/01/27 11:23:31;;;;;;;4.05;1.20;;;;;;;9.48;63.43;99623.00;4993385;28;20121;-66
2024/01/27 11:26:07;;;;;;;3.13;1.20;;;;;;;9.62;62.42;99622.78;5000558;28;20475;-67
2024/01/27 11:28:38;;;;;;;4.43;1.20;;;;;;;9.57;62.99;99623.13;5030068;28;20125;-67
2024/01/27 11:31:05;;;;;;;3.75;1.23;;;;;;;9.64;59.72;99626.09;5004684;28;20422;-66